sensor_id;sensor_type;location;lat;lon;timestamp;pressure;altitude;pressure_sealevel;temperature;humidity
54900;BME280;40801;41.924;25.562;2022-08-01T00:00:18;99125.84;;;22.99;63.49
54900;BME280;40801;41.924;25.562;2022-08-01T00:02:43;99120.34;;;22.99;63.40
54900;BME280;40801;41.924;25.562;2022-08-01T00:05:09;99119.59;;;22.91;63.79
54900;BME280;40801;41.924;25.562;2022-08-01T00:07:36;99118.41;;;22.89;64.23
54900;BME280;40801;41.924;25.562;2022-08-01T00:10:15;99112.50;;;22.94;63.35
54900;BME280;40801;41.924;25.562;2022-08-01T00:12:42;99114.47;;;22.90;63.78
54900;BME280;40801;41.924;25.562;2022-08-01T00:15:09;99110.94;;;22.82;64.12
54900;BME280;40801;41.924;25.562;2022-08-01T00:17:35;99116.41;;;22.78;64.22
54900;BME280;40801;41.924;25.562;2022-08-01T00:20:02;99106.59;;;22.74;64.16
54900;BME280;40801;41.924;25.562;2022-08-01T00:22:30;99114.44;;;22.68;64.12
54900;BME280;40801;41.924;25.562;2022-08-01T00:24:56;99113.66;;;22.68;64.35
54900;BME280;40801;41.924;25.562;2022-08-01T00:27:21;99109.72;;;22.65;64.30
54900;BME280;40801;41.924;25.562;2022-08-01T00:29:47;99111.66;;;22.54;64.57
54900;BME280;40801;41.924;25.562;2022-08-01T00:32:12;99114.81;;;22.52;64.50
54900;BME280;40801;41.924;25.562;2022-08-01T00:34:37;99113.63;;;22.46;64.82
54900;BME280;40801;41.924;25.562;2022-08-01T00:37:03;99112.84;;;22.42;64.66
54900;BME280;40801;41.924;25.562;2022-08-01T00:39:28;99110.50;;;22.37;65.13
54900;BME280;40801;41.924;25.562;2022-08-01T00:41:53;99119.13;;;22.32;64.97
54900;BME280;40801;41.924;25.562;2022-08-01T00:44:19;99115.19;;;22.33;65.05
54900;BME280;40801;41.924;25.562;2022-08-01T00:46:44;99114.03;;;22.34;64.68
54900;BME280;40801;41.924;25.562;2022-08-01T00:49:10;99116.75;;;22.34;64.61
54900;BME280;40801;41.924;25.562;2022-08-01T00:51:35;99117.56;;;22.35;64.56
54900;BME280;40801;41.924;25.562;2022-08-01T00:54:01;99112.84;;;22.32;64.58
54900;BME280;40801;41.924;25.562;2022-08-01T00:56:27;99112.00;;;22.24;64.93
54900;BME280;40801;41.924;25.562;2022-08-01T00:58:54;99119.91;;;22.29;64.62
54900;BME280;40801;41.924;25.562;2022-08-01T01:01:20;99106.13;;;22.22;64.85
54900;BME280;40801;41.924;25.562;2022-08-01T01:03:51;99113.59;;;22.25;64.59
54900;BME280;40801;41.924;25.562;2022-08-01T01:06:23;99113.97;;;22.23;64.63
54900;BME280;40801;41.924;25.562;2022-08-01T01:17:17;99112.38;;;22.12;63.94
54900;BME280;40801;41.924;25.562;2022-08-01T01:19:47;99110.41;;;22.09;64.61
54900;BME280;40801;41.924;25.562;2022-08-01T01:22:33;99106.88;;;22.08;64.35
54900;BME280;40801;41.924;25.562;2022-08-01T01:30:28;99097.88;;;22.08;63.93
54900;BME280;40801;41.924;25.562;2022-08-01T01:32:58;99098.25;;;22.13;63.90
54900;BME280;40801;41.924;25.562;2022-08-01T01:35:28;99095.13;;;22.15;63.79
54900;BME280;40801;41.924;25.562;2022-08-01T01:38:01;99095.91;;;22.12;63.98
54900;BME280;40801;41.924;25.562;2022-08-01T01:40:30;99096.69;;;22.16;63.00
54900;BME280;40801;41.924;25.562;2022-08-01T01:42:56;99092.00;;;22.20;62.66
54900;BME280;40801;41.924;25.562;2022-08-01T01:45:26;99095.94;;;22.26;62.32
54900;BME280;40801;41.924;25.562;2022-08-01T01:47:53;99088.50;;;22.30;61.58
54900;BME280;40801;41.924;25.562;2022-08-01T01:50:23;99095.56;;;22.35;60.61
54900;BME280;40801;41.924;25.562;2022-08-01T01:52:49;99090.84;;;22.35;60.59
54900;BME280;40801;41.924;25.562;2022-08-01T01:55:16;99091.66;;;22.39;59.62
54900;BME280;40801;41.924;25.562;2022-08-01T01:57:44;99084.19;;;22.40;59.00
54900;BME280;40801;41.924;25.562;2022-08-01T02:00:11;99093.59;;;22.42;58.71
54900;BME280;40801;41.924;25.562;2022-08-01T02:02:38;99080.66;;;22.39;58.47
54900;BME280;40801;41.924;25.562;2022-08-01T02:05:06;99079.47;;;22.37;57.84
54900;BME280;40801;41.924;25.562;2022-08-01T02:07:34;99090.47;;;22.40;57.36
54900;BME280;40801;41.924;25.562;2022-08-01T02:10:01;99090.47;;;22.47;56.99
54900;BME280;40801;41.924;25.562;2022-08-01T02:12:29;99091.25;;;22.48;56.84
54900;BME280;40801;41.924;25.562;2022-08-01T02:14:56;99095.97;;;22.40;56.86
54900;BME280;40801;41.924;25.562;2022-08-01T02:17:23;99089.28;;;22.45;56.44
54900;BME280;40801;41.924;25.562;2022-08-01T02:19:49;99093.22;;;22.44;56.29
54900;BME280;40801;41.924;25.562;2022-08-01T02:25:06;99080.66;;;22.50;55.69
54900;BME280;40801;41.924;25.562;2022-08-01T02:27:46;99089.69;;;22.47;55.69
54900;BME280;40801;41.924;25.562;2022-08-01T02:30:13;99082.63;;;22.46;55.66
54900;BME280;40801;41.924;25.562;2022-08-01T02:32:44;99084.97;;;22.44;55.58
54900;BME280;40801;41.924;25.562;2022-08-01T02:35:19;99082.22;;;22.37;55.79
54900;BME280;40801;41.924;25.562;2022-08-01T02:37:47;99086.53;;;22.34;55.71
54900;BME280;40801;41.924;25.562;2022-08-01T02:40:14;99080.25;;;22.34;55.61
54900;BME280;40801;41.924;25.562;2022-08-01T02:42:45;99079.88;;;22.32;55.39
54900;BME280;40801;41.924;25.562;2022-08-01T02:45:13;99078.69;;;22.33;55.47
54900;BME280;40801;41.924;25.562;2022-08-01T02:47:40;99072.81;;;22.31;54.87
54900;BME280;40801;41.924;25.562;2022-08-01T02:50:08;99077.13;;;22.35;54.81
54900;BME280;40801;41.924;25.562;2022-08-01T02:52:37;99078.31;;;22.34;54.62
54900;BME280;40801;41.924;25.562;2022-08-01T02:55:04;99067.69;;;22.33;54.39
54900;BME280;40801;41.924;25.562;2022-08-01T02:57:30;99076.72;;;22.37;53.98
54900;BME280;40801;41.924;25.562;2022-08-01T02:59:58;99081.44;;;22.33;54.17
54900;BME280;40801;41.924;25.562;2022-08-01T03:02:24;99083.00;;;22.27;53.99
54900;BME280;40801;41.924;25.562;2022-08-01T03:04:52;99084.19;;;22.33;53.50
54900;BME280;40801;41.924;25.562;2022-08-01T03:07:18;99083.41;;;22.29;53.61
54900;BME280;40801;41.924;25.562;2022-08-01T03:09:46;99087.72;;;22.37;53.37
54900;BME280;40801;41.924;25.562;2022-08-01T03:12:19;99088.13;;;22.35;53.21
54900;BME280;40801;41.924;25.562;2022-08-01T03:14:48;99091.66;;;22.36;53.40
54900;BME280;40801;41.924;25.562;2022-08-01T03:17:15;99089.28;;;22.31;53.34
54900;BME280;40801;41.924;25.562;2022-08-01T03:19:43;99090.06;;;22.35;53.23
54900;BME280;40801;41.924;25.562;2022-08-01T03:22:11;99084.97;;;22.37;52.96
54900;BME280;40801;41.924;25.562;2022-08-01T03:24:39;99079.09;;;22.38;52.94
54900;BME280;40801;41.924;25.562;2022-08-01T03:27:06;99093.59;;;22.35;52.96
54900;BME280;40801;41.924;25.562;2022-08-01T03:29:32;99082.63;;;22.32;53.06
54900;BME280;40801;41.924;25.562;2022-08-01T03:32:00;99082.97;;;22.23;53.06
54900;BME280;40801;41.924;25.562;2022-08-01T03:34:26;99081.44;;;22.29;53.29
54900;BME280;40801;41.924;25.562;2022-08-01T03:39:31;99079.88;;;22.32;52.78
54900;BME280;40801;41.924;25.562;2022-08-01T03:42:03;99073.16;;;22.25;52.64
54900;BME280;40801;41.924;25.562;2022-08-01T03:44:33;99069.66;;;22.32;52.61
54900;BME280;40801;41.924;25.562;2022-08-01T03:47:05;99068.88;;;22.35;52.49
54900;BME280;40801;41.924;25.562;2022-08-01T03:49:33;99065.75;;;22.40;52.19
54900;BME280;40801;41.924;25.562;2022-08-01T03:52:04;99070.06;;;22.38;52.26
54900;BME280;40801;41.924;25.562;2022-08-01T03:54:34;99070.84;;;22.38;52.32
54900;BME280;40801;41.924;25.562;2022-08-01T03:57:01;99075.16;;;22.36;52.26
54900;BME280;40801;41.924;25.562;2022-08-01T03:59:28;99068.47;;;22.47;51.86
54900;BME280;40801;41.924;25.562;2022-08-01T04:01:55;99073.59;;;22.52;51.70
54900;BME280;40801;41.924;25.562;2022-08-01T04:04:21;99079.88;;;22.49;51.89
54900;BME280;40801;41.924;25.562;2022-08-01T04:06:48;99079.91;;;22.56;51.64
54900;BME280;40801;41.924;25.562;2022-08-01T04:09:19;99085.38;;;22.60;51.60
54900;BME280;40801;41.924;25.562;2022-08-01T04:11:44;99079.50;;;22.69;51.11
54900;BME280;40801;41.924;25.562;2022-08-01T04:14:09;99084.97;;;22.76;50.95
54900;BME280;40801;41.924;25.562;2022-08-01T04:16:35;99085.75;;;22.76;50.69
54900;BME280;40801;41.924;25.562;2022-08-01T04:19:00;99089.69;;;22.75;50.96
54900;BME280;40801;41.924;25.562;2022-08-01T04:21:26;99092.50;;;22.86;50.50
54900;BME280;40801;41.924;25.562;2022-08-01T04:23:57;99092.06;;;22.84;50.39
54900;BME280;40801;41.924;25.562;2022-08-01T04:26:24;99091.28;;;23.01;50.25
54900;BME280;40801;41.924;25.562;2022-08-01T04:28:52;99097.56;;;23.09;49.95
54900;BME280;40801;41.924;25.562;2022-08-01T04:31:17;99095.19;;;23.22;49.51
54900;BME280;40801;41.924;25.562;2022-08-01T04:33:47;99087.69;;;23.33;49.14
54900;BME280;40801;41.924;25.562;2022-08-01T04:36:17;99091.59;;;23.42;48.26
54900;BME280;40801;41.924;25.562;2022-08-01T04:38:46;99097.47;;;23.48;48.03
54900;BME280;40801;41.924;25.562;2022-08-01T04:41:14;99092.34;;;23.57;47.62
54900;BME280;40801;41.924;25.562;2022-08-01T04:43:41;99089.97;;;23.63;47.20
54900;BME280;40801;41.924;25.562;2022-08-01T04:46:08;99093.84;;;23.79;47.13
54900;BME280;40801;41.924;25.562;2022-08-01T04:48:38;99094.25;;;23.74;46.52
54900;BME280;40801;41.924;25.562;2022-08-01T04:51:04;99087.09;;;23.91;46.26
54900;BME280;40801;41.924;25.562;2022-08-01T04:53:35;99084.75;;;23.90;44.71
54900;BME280;40801;41.924;25.562;2022-08-01T04:56:01;99094.16;;;23.92;45.32
54900;BME280;40801;41.924;25.562;2022-08-01T04:58:26;99082.66;;;24.12;45.08
54900;BME280;40801;41.924;25.562;2022-08-01T05:00:52;99082.97;;;24.31;44.46
54900;BME280;40801;41.924;25.562;2022-08-01T05:03:17;99088.78;;;24.44;44.40
54900;BME280;40801;41.924;25.562;2022-08-01T05:05:43;99079.66;;;24.51;43.78
54900;BME280;40801;41.924;25.562;2022-08-01T05:08:08;99080.72;;;24.67;43.41
54900;BME280;40801;41.924;25.562;2022-08-01T05:10:35;99081.44;;;24.75;42.63
54900;BME280;40801;41.924;25.562;2022-08-01T05:13:00;99083.72;;;24.84;42.09
54900;BME280;40801;41.924;25.562;2022-08-01T05:15:26;99076.59;;;24.86;42.07
54900;BME280;40801;41.924;25.562;2022-08-01T05:17:52;99079.97;;;25.08;42.05
54900;BME280;40801;41.924;25.562;2022-08-01T05:20:17;99067.25;;;25.21;41.34
54900;BME280;40801;41.924;25.562;2022-08-01T05:22:43;99062.91;;;25.20;41.11
54900;BME280;40801;41.924;25.562;2022-08-01T05:25:08;99068.34;;;25.27;40.24
54900;BME280;40801;41.924;25.562;2022-08-01T05:27:34;99078.53;;;25.34;39.65
54900;BME280;40801;41.924;25.562;2022-08-01T05:30:06;99075.63;;;25.48;39.39
54900;BME280;40801;41.924;25.562;2022-08-01T05:32:32;99069.63;;;25.53;39.00
54900;BME280;40801;41.924;25.562;2022-08-01T05:34:57;99084.53;;;25.59;38.59
54900;BME280;40801;41.924;25.562;2022-08-01T05:37:22;99086.75;;;25.75;38.16
54900;BME280;40801;41.924;25.562;2022-08-01T05:39:48;99088.31;;;25.76;38.40
54900;BME280;40801;41.924;25.562;2022-08-01T05:42:13;99090.63;;;25.81;38.27
54900;BME280;40801;41.924;25.562;2022-08-01T05:44:39;99079.41;;;25.92;38.30
54900;BME280;40801;41.924;25.562;2022-08-01T05:47:04;99089.19;;;26.00;37.82
54900;BME280;40801;41.924;25.562;2022-08-01T05:49:30;99082.78;;;26.07;37.92
54900;BME280;40801;41.924;25.562;2022-08-01T05:51:55;99092.59;;;26.11;37.82
54900;BME280;40801;41.924;25.562;2022-08-01T05:54:20;99089.56;;;26.02;37.83
54900;BME280;40801;41.924;25.562;2022-08-01T05:56:46;99094.25;;;26.05;38.03
54900;BME280;40801;41.924;25.562;2022-08-01T05:59:11;99097.44;;;26.34;37.91
54900;BME280;40801;41.924;25.562;2022-08-01T06:01:37;99096.97;;;26.39;37.51
54900;BME280;40801;41.924;25.562;2022-08-01T06:04:02;99091.78;;;26.41;37.01
54900;BME280;40801;41.924;25.562;2022-08-01T06:06:28;99080.41;;;26.36;37.11
54900;BME280;40801;41.924;25.562;2022-08-01T06:08:53;99078.31;;;26.43;37.43
54900;BME280;40801;41.924;25.562;2022-08-01T06:11:18;99086.13;;;26.48;36.96
54900;BME280;40801;41.924;25.562;2022-08-01T06:13:44;99075.28;;;26.61;36.61
54900;BME280;40801;41.924;25.562;2022-08-01T06:16:09;99080.50;;;26.79;36.66
54900;BME280;40801;41.924;25.562;2022-08-01T06:18:35;99080.50;;;26.79;35.76
54900;BME280;40801;41.924;25.562;2022-08-01T06:21:00;99067.22;;;26.94;35.42
54900;BME280;40801;41.924;25.562;2022-08-01T06:23:26;99067.75;;;27.08;35.22
54900;BME280;40801;41.924;25.562;2022-08-01T06:25:54;99058.28;;;27.29;35.32
54900;BME280;40801;41.924;25.562;2022-08-01T06:28:21;99061.84;;;27.50;35.43
54900;BME280;40801;41.924;25.562;2022-08-01T06:30:46;99065.13;;;27.64;34.16
54900;BME280;40801;41.924;25.562;2022-08-01T06:33:12;99065.38;;;27.70;33.13
54900;BME280;40801;41.924;25.562;2022-08-01T06:35:37;99068.59;;;27.68;32.67
54900;BME280;40801;41.924;25.562;2022-08-01T06:38:03;99062.69;;;27.86;32.05
54900;BME280;40801;41.924;25.562;2022-08-01T06:40:28;99067.53;;;27.82;31.43
54900;BME280;40801;41.924;25.562;2022-08-01T06:42:54;99066.97;;;28.07;31.34
54900;BME280;40801;41.924;25.562;2022-08-01T06:45:19;99060.28;;;28.04;29.73
54900;BME280;40801;41.924;25.562;2022-08-01T06:47:47;99063.81;;;28.25;30.69
54900;BME280;40801;41.924;25.562;2022-08-01T06:50:13;99059.16;;;28.38;30.52
54900;BME280;40801;41.924;25.562;2022-08-01T06:52:40;99058.13;;;28.48;30.20
54900;BME280;40801;41.924;25.562;2022-08-01T06:55:06;99049.75;;;28.81;29.74
54900;BME280;40801;41.924;25.562;2022-08-01T06:57:31;99056.44;;;28.99;28.72
54900;BME280;40801;41.924;25.562;2022-08-01T07:00:04;99042.66;;;28.96;28.88
54900;BME280;40801;41.924;25.562;2022-08-01T07:02:32;99045.94;;;28.91;28.32
54900;BME280;40801;41.924;25.562;2022-08-01T07:04:58;99049.69;;;29.29;28.54
54900;BME280;40801;41.924;25.562;2022-08-01T07:07:26;99049.69;;;29.58;27.90
54900;BME280;40801;41.924;25.562;2022-08-01T07:09:51;99053.19;;;29.46;27.63
54900;BME280;40801;41.924;25.562;2022-08-01T07:12:17;99047.03;;;29.39;27.70
54900;BME280;40801;41.924;25.562;2022-08-01T07:14:42;99042.03;;;29.34;27.11
54900;BME280;40801;41.924;25.562;2022-08-01T07:17:07;99049.25;;;29.31;27.40
54900;BME280;40801;41.924;25.562;2022-08-01T07:19:33;99050.91;;;29.28;27.75
54900;BME280;40801;41.924;25.562;2022-08-01T07:21:58;99051.56;;;29.33;27.37
54900;BME280;40801;41.924;25.562;2022-08-01T07:24:24;99044.59;;;29.41;27.45
54900;BME280;40801;41.924;25.562;2022-08-01T07:26:49;99042.81;;;29.34;27.64
54900;BME280;40801;41.924;25.562;2022-08-01T07:29:15;99037.75;;;29.45;27.43
54900;BME280;40801;41.924;25.562;2022-08-01T07:31:40;99050.06;;;29.44;27.46
54900;BME280;40801;41.924;25.562;2022-08-01T07:34:06;99039.81;;;29.41;27.28
54900;BME280;40801;41.924;25.562;2022-08-01T07:36:32;99026.69;;;29.29;27.25
54900;BME280;40801;41.924;25.562;2022-08-01T07:38:57;99035.44;;;29.27;27.64
54900;BME280;40801;41.924;25.562;2022-08-01T07:41:23;99029.06;;;29.14;27.40
54900;BME280;40801;41.924;25.562;2022-08-01T07:43:48;99026.88;;;29.51;27.53
54900;BME280;40801;41.924;25.562;2022-08-01T07:46:15;99027.13;;;29.56;27.51
54900;BME280;40801;41.924;25.562;2022-08-01T07:48:41;99041.03;;;29.69;27.10
54900;BME280;40801;41.924;25.562;2022-08-01T07:51:06;99027.94;;;29.82;26.60
54900;BME280;40801;41.924;25.562;2022-08-01T07:53:33;99026.13;;;29.76;26.87
54900;BME280;40801;41.924;25.562;2022-08-01T07:55:58;99037.66;;;30.16;25.92
54900;BME280;40801;41.924;25.562;2022-08-01T07:58:24;99039.28;;;30.26;26.20
54900;BME280;40801;41.924;25.562;2022-08-01T08:00:50;99022.78;;;30.70;25.78
54900;BME280;40801;41.924;25.562;2022-08-01T08:03:15;99035.22;;;30.78;25.25
54900;BME280;40801;41.924;25.562;2022-08-01T08:05:41;99028.31;;;31.39;25.56
54900;BME280;40801;41.924;25.562;2022-08-01T08:08:08;99031.59;;;31.68;25.13
54900;BME280;40801;41.924;25.562;2022-08-01T08:10:34;99039.06;;;31.71;25.16
54900;BME280;40801;41.924;25.562;2022-08-01T08:12:59;99035.88;;;32.22;24.51
54900;BME280;40801;41.924;25.562;2022-08-01T08:15:26;99028.50;;;32.38;24.20
54900;BME280;40801;41.924;25.562;2022-08-01T08:17:52;99024.75;;;32.31;24.00
54900;BME280;40801;41.924;25.562;2022-08-01T08:20:17;99025.19;;;32.21;23.92
54900;BME280;40801;41.924;25.562;2022-08-01T08:22:43;99027.63;;;32.59;24.41
54900;BME280;40801;41.924;25.562;2022-08-01T08:25:08;99036.53;;;32.94;23.41
54900;BME280;40801;41.924;25.562;2022-08-01T08:27:35;99025.50;;;33.27;23.60
54900;BME280;40801;41.924;25.562;2022-08-01T08:30:02;99026.91;;;33.41;23.03
54900;BME280;40801;41.924;25.562;2022-08-01T08:32:27;99018.84;;;32.97;23.32
54900;BME280;40801;41.924;25.562;2022-08-01T08:34:53;99027.72;;;33.32;23.79
54900;BME280;40801;41.924;25.562;2022-08-01T08:37:18;99027.47;;;33.63;23.60
54900;BME280;40801;41.924;25.562;2022-08-01T08:39:43;99020.00;;;33.69;23.42
54900;BME280;40801;41.924;25.562;2022-08-01T08:42:12;99021.78;;;34.42;22.96
54900;BME280;40801;41.924;25.562;2022-08-01T08:44:40;99011.41;;;34.24;22.68
54900;BME280;40801;41.924;25.562;2022-08-01T08:47:07;99023.16;;;34.04;22.23
54900;BME280;40801;41.924;25.562;2022-08-01T08:49:33;99022.56;;;34.81;22.04
54900;BME280;40801;41.924;25.562;2022-08-01T08:52:00;99010.00;;;35.15;21.61
54900;BME280;40801;41.924;25.562;2022-08-01T08:54:27;99019.59;;;35.23;20.70
54900;BME280;40801;41.924;25.562;2022-08-01T08:56:53;99007.56;;;34.93;21.56
54900;BME280;40801;41.924;25.562;2022-08-01T08:59:19;99007.69;;;35.14;21.78
54900;BME280;40801;41.924;25.562;2022-08-01T09:01:46;99003.97;;;34.93;21.57
54900;BME280;40801;41.924;25.562;2022-08-01T09:04:12;99002.47;;;35.06;21.55
54900;BME280;40801;41.924;25.562;2022-08-01T09:06:38;99007.47;;;35.41;20.88
54900;BME280;40801;41.924;25.562;2022-08-01T09:09:05;98996.19;;;35.12;21.24
54900;BME280;40801;41.924;25.562;2022-08-01T09:11:31;98990.31;;;35.68;21.10
54900;BME280;40801;41.924;25.562;2022-08-01T09:14:14;98970.41;;;36.16;20.81
54900;BME280;40801;41.924;25.562;2022-08-01T09:17:01;98983.50;;;36.40;20.20
54900;BME280;40801;41.924;25.562;2022-08-01T09:19:44;98971.78;;;36.41;19.72
54900;BME280;40801;41.924;25.562;2022-08-01T09:22:12;98965.09;;;36.59;19.93
54900;BME280;40801;41.924;25.562;2022-08-01T09:24:39;98978.50;;;36.70;20.03
54900;BME280;40801;41.924;25.562;2022-08-01T09:27:20;98973.75;;;36.55;19.18
54900;BME280;40801;41.924;25.562;2022-08-01T09:29:45;98974.59;;;36.61;19.93
54900;BME280;40801;41.924;25.562;2022-08-01T09:32:11;98964.16;;;36.68;20.02
54900;BME280;40801;41.924;25.562;2022-08-01T09:34:36;98960.91;;;36.49;19.83
54900;BME280;40801;41.924;25.562;2022-08-01T09:37:03;98967.84;;;36.74;19.81
54900;BME280;40801;41.924;25.562;2022-08-01T09:39:35;98950.03;;;37.29;19.10
54900;BME280;40801;41.924;25.562;2022-08-01T09:42:25;98957.50;;;37.63;18.50
54900;BME280;40801;41.924;25.562;2022-08-01T09:44:51;98950.19;;;37.45;18.86
54900;BME280;40801;41.924;25.562;2022-08-01T09:47:19;98941.41;;;37.69;19.42
54900;BME280;40801;41.924;25.562;2022-08-01T09:49:53;98954.22;;;37.39;18.47
54900;BME280;40801;41.924;25.562;2022-08-01T09:52:22;98947.53;;;37.31;19.00
54900;BME280;40801;41.924;25.562;2022-08-01T09:54:57;98957.16;;;37.56;18.86
54900;BME280;40801;41.924;25.562;2022-08-01T09:57:23;98946.06;;;37.41;19.06
54900;BME280;40801;41.924;25.562;2022-08-01T09:59:51;98954.91;;;37.91;18.84
54900;BME280;40801;41.924;25.562;2022-08-01T10:02:28;98956.84;;;36.96;18.57
54900;BME280;40801;41.924;25.562;2022-08-01T10:04:54;98953.47;;;37.38;18.88
54900;BME280;40801;41.924;25.562;2022-08-01T10:07:20;98955.47;;;37.32;19.05
54900;BME280;40801;41.924;25.562;2022-08-01T10:09:48;98954.84;;;37.54;18.26
54900;BME280;40801;41.924;25.562;2022-08-01T10:12:16;98960.28;;;37.89;18.45
54900;BME280;40801;41.924;25.562;2022-08-01T10:14:43;98952.81;;;37.55;18.58
54900;BME280;40801;41.924;25.562;2022-08-01T10:17:14;98951.25;;;37.85;18.54
54900;BME280;40801;41.924;25.562;2022-08-01T10:19:41;98961.44;;;37.77;18.48
54900;BME280;40801;41.924;25.562;2022-08-01T10:22:08;98963.22;;;37.43;18.41
54900;BME280;40801;41.924;25.562;2022-08-01T10:24:39;98946.91;;;37.84;18.28
54900;BME280;40801;41.924;25.562;2022-08-01T10:27:07;98949.50;;;38.30;18.18
54900;BME280;40801;41.924;25.562;2022-08-01T10:29:57;98952.81;;;37.55;18.40
54900;BME280;40801;41.924;25.562;2022-08-01T10:32:32;98942.63;;;37.94;18.24
54900;BME280;40801;41.924;25.562;2022-08-01T10:34:59;98952.19;;;38.13;17.42
54900;BME280;40801;41.924;25.562;2022-08-01T10:37:25;98955.75;;;38.57;17.55
54900;BME280;40801;41.924;25.562;2022-08-01T10:39:52;98946.81;;;38.10;18.17
54900;BME280;40801;41.924;25.562;2022-08-01T10:42:18;98959.19;;;38.18;17.66
54900;BME280;40801;41.924;25.562;2022-08-01T10:44:45;98957.41;;;38.21;18.02
54900;BME280;40801;41.924;25.562;2022-08-01T10:47:14;98954.53;;;37.78;17.94
54900;BME280;40801;41.924;25.562;2022-08-01T10:49:47;98950.19;;;37.77;17.68
54900;BME280;40801;41.924;25.562;2022-08-01T10:52:17;98950.00;;;38.29;17.80
54900;BME280;40801;41.924;25.562;2022-08-01T10:54:42;98964.53;;;38.64;17.42
54900;BME280;40801;41.924;25.562;2022-08-01T10:57:08;98936.63;;;37.75;18.33
54900;BME280;40801;41.924;25.562;2022-08-01T10:59:36;98941.75;;;37.77;18.18
54900;BME280;40801;41.924;25.562;2022-08-01T11:02:25;98936.78;;;38.46;18.11
54900;BME280;40801;41.924;25.562;2022-08-01T11:05:01;98947.25;;;39.11;17.06
54900;BME280;40801;41.924;25.562;2022-08-01T11:07:46;98946.53;;;38.51;17.59
54900;BME280;40801;41.924;25.562;2022-08-01T11:10:27;98943.72;;;38.56;17.62
54900;BME280;40801;41.924;25.562;2022-08-01T11:12:55;98949.59;;;38.47;17.71
54900;BME280;40801;41.924;25.562;2022-08-01T11:15:22;98950.31;;;38.42;17.78
54900;BME280;40801;41.924;25.562;2022-08-01T11:17:52;98943.63;;;38.34;17.65
54900;BME280;40801;41.924;25.562;2022-08-01T11:20:22;98930.94;;;38.12;18.05
54900;BME280;40801;41.924;25.562;2022-08-01T11:30:49;98928.97;;;38.78;17.65
54900;BME280;40801;41.924;25.562;2022-08-01T11:33:17;98928.47;;;38.91;17.32
54900;BME280;40801;41.924;25.562;2022-08-01T11:38:43;98909.28;;;39.28;17.15
54900;BME280;40801;41.924;25.562;2022-08-01T11:46:50;98908.97;;;39.93;16.10
54900;BME280;40801;41.924;25.562;2022-08-01T11:51:57;98906.97;;;39.60;17.33
54900;BME280;40801;41.924;25.562;2022-08-01T11:54:31;98918.03;;;39.53;17.23
54900;BME280;40801;41.924;25.562;2022-08-01T11:56:59;98923.66;;;39.25;17.45
54900;BME280;40801;41.924;25.562;2022-08-01T11:59:25;98921.09;;;39.32;17.72
54900;BME280;40801;41.924;25.562;2022-08-01T12:01:51;98914.41;;;39.19;17.85
54900;BME280;40801;41.924;25.562;2022-08-01T12:04:17;98894.66;;;39.63;17.21
54900;BME280;40801;41.924;25.562;2022-08-01T12:06:43;98915.69;;;39.74;16.63
54900;BME280;40801;41.924;25.562;2022-08-01T12:09:19;98901.53;;;38.95;17.44
54900;BME280;40801;41.924;25.562;2022-08-01T12:11:45;98907.84;;;38.57;18.09
54900;BME280;40801;41.924;25.562;2022-08-01T12:14:20;98905.19;;;39.41;17.53
54900;BME280;40801;41.924;25.562;2022-08-01T12:16:53;98909.84;;;38.39;17.99
54900;BME280;40801;41.924;25.562;2022-08-01T12:19:20;98902.44;;;37.94;18.56
54900;BME280;40801;41.924;25.562;2022-08-01T12:22:07;98884.38;;;38.88;18.01
54900;BME280;40801;41.924;25.562;2022-08-01T12:24:34;98885.38;;;38.96;18.30
54900;BME280;40801;41.924;25.562;2022-08-01T12:27:00;98882.56;;;38.96;17.60
54900;BME280;40801;41.924;25.562;2022-08-01T12:29:34;98884.94;;;39.09;17.82
54900;BME280;40801;41.924;25.562;2022-08-01T12:31:59;98894.41;;;39.45;17.35
54900;BME280;40801;41.924;25.562;2022-08-01T12:34:26;98877.94;;;39.82;17.01
54900;BME280;40801;41.924;25.562;2022-08-01T12:36:59;98876.72;;;39.33;17.42
54900;BME280;40801;41.924;25.562;2022-08-01T12:39:32;98884.16;;;39.53;17.21
54900;BME280;40801;41.924;25.562;2022-08-01T12:41:58;98889.28;;;39.10;17.86
54900;BME280;40801;41.924;25.562;2022-08-01T12:44:25;98876.47;;;39.37;17.59
54900;BME280;40801;41.924;25.562;2022-08-01T12:46:51;98873.38;;;39.18;17.13
54900;BME280;40801;41.924;25.562;2022-08-01T12:49:17;98873.84;;;39.78;17.13
54900;BME280;40801;41.924;25.562;2022-08-01T12:51:42;98864.91;;;39.62;17.45
54900;BME280;40801;41.924;25.562;2022-08-01T12:54:08;98858.09;;;40.10;17.13
54900;BME280;40801;41.924;25.562;2022-08-01T12:56:35;98862.56;;;40.88;16.39
54900;BME280;40801;41.924;25.562;2022-08-01T12:59:01;98860.78;;;40.85;16.54
54900;BME280;40801;41.924;25.562;2022-08-01T13:01:28;98861.13;;;40.23;16.63
54900;BME280;40801;41.924;25.562;2022-08-01T13:04:01;98850.53;;;40.82;16.58
54900;BME280;40801;41.924;25.562;2022-08-01T13:06:29;98866.88;;;40.95;16.44
54900;BME280;40801;41.924;25.562;2022-08-01T13:09:04;98857.69;;;40.89;16.17
54900;BME280;40801;41.924;25.562;2022-08-01T13:11:30;98856.75;;;41.40;16.46
54900;BME280;40801;41.924;25.562;2022-08-01T13:13:56;98848.84;;;40.98;16.37
54900;BME280;40801;41.924;25.562;2022-08-01T13:16:24;98846.47;;;41.07;16.35
54900;BME280;40801;41.924;25.562;2022-08-01T13:18:52;98849.25;;;41.43;15.86
54900;BME280;40801;41.924;25.562;2022-08-01T13:21:18;98844.44;;;40.14;16.27
54900;BME280;40801;41.924;25.562;2022-08-01T13:24:02;98847.72;;;39.27;16.86
54900;BME280;40801;41.924;25.562;2022-08-01T13:29:11;98855.66;;;38.07;18.33
54900;BME280;40801;41.924;25.562;2022-08-01T13:31:38;98855.00;;;37.81;18.61
54900;BME280;40801;41.924;25.562;2022-08-01T13:34:04;98846.81;;;38.31;18.40